sensor_id;sensor_type;location;lat;lon;timestamp;P1;durP1;ratioP1;P2;durP2;ratioP2
5454;SDS011;2750;49.050;9.250;2022-10-14T00:02:11;31.13;;;22.47;;
5454;SDS011;2750;49.050;9.250;2022-10-14T00:07:14;32.23;;;22.23;;
5454;SDS011;2750;49.050;9.250;2022-10-14T00:12:15;29.40;;;22.20;;
5454;SDS011;2750;49.050;9.250;2022-10-14T00:17:17;32.10;;;23.17;;
5454;SDS011;2750;49.050;9.250;2022-10-14T00:22:20;32.03;;;22.70;;
5454;SDS011;2750;49.050;9.250;2022-10-14T00:27:21;30.87;;;22.73;;
5454;SDS011;2750;49.050;9.250;2022-10-14T00:32:22;31.57;;;22.73;;
5454;SDS011;2750;49.050;9.250;2022-10-14T00:37:25;35.50;;;24.97;;
5454;SDS011;2750;49.050;9.250;2022-10-14T00:42:30;36.47;;;26.37;;
5454;SDS011;2750;49.050;9.250;2022-10-14T00:47:32;33.80;;;23.60;;
5454;SDS011;2750;49.050;9.250;2022-10-14T00:52:35;36.77;;;25.47;;
5454;SDS011;2750;49.050;9.250;2022-10-14T00:57:37;38.20;;;25.87;;
5454;SDS011;2750;49.050;9.250;2022-10-14T01:02:39;28.73;;;21.33;;
5454;SDS011;2750;49.050;9.250;2022-10-14T01:07:44;31.37;;;23.03;;
5454;SDS011;2750;49.050;9.250;2022-10-14T01:12:57;39.87;;;25.80;;
5454;SDS011;2750;49.050;9.250;2022-10-14T01:18:09;32.67;;;23.97;;
5454;SDS011;2750;49.050;9.250;2022-10-14T01:23:26;31.93;;;23.13;;
5454;SDS011;2750;49.050;9.250;2022-10-14T01:28:45;31.43;;;23.50;;
5454;SDS011;2750;49.050;9.250;2022-10-14T01:33:57;35.83;;;24.13;;
5454;SDS011;2750;49.050;9.250;2022-10-14T01:39:03;26.60;;;19.50;;
5454;SDS011;2750;49.050;9.250;2022-10-14T01:44:11;26.60;;;21.23;;
5454;SDS011;2750;49.050;9.250;2022-10-14T01:49:20;29.97;;;22.33;;
5454;SDS011;2750;49.050;9.250;2022-10-14T01:54:26;23.77;;;19.97;;
5454;SDS011;2750;49.050;9.250;2022-10-14T01:59:31;27.43;;;21.47;;
5454;SDS011;2750;49.050;9.250;2022-10-14T02:04:36;22.60;;;17.70;;
5454;SDS011;2750;49.050;9.250;2022-10-14T02:09:41;23.93;;;20.37;;
5454;SDS011;2750;49.050;9.250;2022-10-14T02:14:49;22.60;;;19.53;;
5454;SDS011;2750;49.050;9.250;2022-10-14T02:20:02;25.37;;;19.20;;
5454;SDS011;2750;49.050;9.250;2022-10-14T02:25:09;28.60;;;21.17;;
5454;SDS011;2750;49.050;9.250;2022-10-14T02:30:16;23.33;;;17.80;;
5454;SDS011;2750;49.050;9.250;2022-10-14T02:35:20;17.80;;;15.83;;
5454;SDS011;2750;49.050;9.250;2022-10-14T02:40:25;28.33;;;18.47;;
5454;SDS011;2750;49.050;9.250;2022-10-14T02:45:35;22.50;;;17.70;;
5454;SDS011;2750;49.050;9.250;2022-10-14T02:50:39;21.47;;;17.37;;
5454;SDS011;2750;49.050;9.250;2022-10-14T02:55:41;20.33;;;16.53;;
5454;SDS011;2750;49.050;9.250;2022-10-14T03:00:43;19.77;;;16.30;;
5454;SDS011;2750;49.050;9.250;2022-10-14T03:05:45;18.60;;;14.90;;
5454;SDS011;2750;49.050;9.250;2022-10-14T03:10:47;18.93;;;16.00;;
5454;SDS011;2750;49.050;9.250;2022-10-14T03:15:49;18.47;;;14.53;;
5454;SDS011;2750;49.050;9.250;2022-10-14T03:20:52;18.37;;;14.73;;
5454;SDS011;2750;49.050;9.250;2022-10-14T03:25:54;19.83;;;16.87;;
5454;SDS011;2750;49.050;9.250;2022-10-14T03:30:56;21.67;;;16.53;;
5454;SDS011;2750;49.050;9.250;2022-10-14T03:35:59;25.83;;;16.40;;
5454;SDS011;2750;49.050;9.250;2022-10-14T03:41:00;20.97;;;15.27;;
5454;SDS011;2750;49.050;9.250;2022-10-14T03:46:02;18.67;;;15.10;;
5454;SDS011;2750;49.050;9.250;2022-10-14T03:51:05;17.87;;;14.33;;
5454;SDS011;2750;49.050;9.250;2022-10-14T03:56:06;16.97;;;13.77;;
5454;SDS011;2750;49.050;9.250;2022-10-14T04:01:08;19.20;;;14.43;;
5454;SDS011;2750;49.050;9.250;2022-10-14T04:06:11;17.57;;;13.13;;
5454;SDS011;2750;49.050;9.250;2022-10-14T04:11:13;16.10;;;12.57;;
5454;SDS011;2750;49.050;9.250;2022-10-14T04:16:15;16.23;;;12.53;;
5454;SDS011;2750;49.050;9.250;2022-10-14T04:21:18;17.93;;;13.53;;
5454;SDS011;2750;49.050;9.250;2022-10-14T04:26:20;15.57;;;11.80;;
5454;SDS011;2750;49.050;9.250;2022-10-14T04:31:21;16.40;;;12.70;;
5454;SDS011;2750;49.050;9.250;2022-10-14T04:36:24;16.43;;;12.03;;
5454;SDS011;2750;49.050;9.250;2022-10-14T04:41:26;18.00;;;11.93;;
5454;SDS011;2750;49.050;9.250;2022-10-14T04:46:28;15.37;;;12.10;;
5454;SDS011;2750;49.050;9.250;2022-10-14T04:51:31;13.17;;;11.30;;
5454;SDS011;2750;49.050;9.250;2022-10-14T04:56:33;14.87;;;11.83;;
5454;SDS011;2750;49.050;9.250;2022-10-14T05:01:34;18.87;;;12.97;;
5454;SDS011;2750;49.050;9.250;2022-10-14T05:06:38;16.50;;;13.00;;
5454;SDS011;2750;49.050;9.250;2022-10-14T05:11:39;20.13;;;16.37;;
5454;SDS011;2750;49.050;9.250;2022-10-14T05:16:41;18.40;;;14.33;;
5454;SDS011;2750;49.050;9.250;2022-10-14T05:21:44;28.63;;;22.03;;
5454;SDS011;2750;49.050;9.250;2022-10-14T05:26:45;24.10;;;16.60;;
5454;SDS011;2750;49.050;9.250;2022-10-14T05:31:47;17.23;;;14.93;;
5454;SDS011;2750;49.050;9.250;2022-10-14T05:36:50;19.47;;;15.37;;
5454;SDS011;2750;49.050;9.250;2022-10-14T05:41:52;19.47;;;14.53;;
5454;SDS011;2750;49.050;9.250;2022-10-14T05:46:53;19.23;;;14.67;;
5454;SDS011;2750;49.050;9.250;2022-10-14T05:51:56;16.57;;;13.03;;
5454;SDS011;2750;49.050;9.250;2022-10-14T05:56:59;14.10;;;11.83;;
5454;SDS011;2750;49.050;9.250;2022-10-14T06:02:01;13.63;;;11.00;;
5454;SDS011;2750;49.050;9.250;2022-10-14T06:07:04;14.30;;;11.67;;
5454;SDS011;2750;49.050;9.250;2022-10-14T06:12:05;11.97;;;10.50;;
5454;SDS011;2750;49.050;9.250;2022-10-14T06:17:07;10.97;;;9.87;;
5454;SDS011;2750;49.050;9.250;2022-10-14T06:22:10;10.37;;;8.67;;
5454;SDS011;2750;49.050;9.250;2022-10-14T06:27:12;10.77;;;9.40;;
5454;SDS011;2750;49.050;9.250;2022-10-14T06:32:13;11.50;;;8.77;;
5454;SDS011;2750;49.050;9.250;2022-10-14T06:37:16;13.50;;;10.03;;
5454;SDS011;2750;49.050;9.250;2022-10-14T06:42:18;14.77;;;9.90;;
5454;SDS011;2750;49.050;9.250;2022-10-14T06:47:20;13.87;;;8.90;;
5454;SDS011;2750;49.050;9.250;2022-10-14T06:52:23;10.00;;;8.77;;
5454;SDS011;2750;49.050;9.250;2022-10-14T06:57:24;10.60;;;9.60;;
5454;SDS011;2750;49.050;9.250;2022-10-14T07:02:26;9.97;;;8.60;;
5454;SDS011;2750;49.050;9.250;2022-10-14T07:07:29;11.87;;;9.20;;
5454;SDS011;2750;49.050;9.250;2022-10-14T07:12:31;10.80;;;8.97;;
5454;SDS011;2750;49.050;9.250;2022-10-14T07:17:33;9.50;;;8.50;;
5454;SDS011;2750;49.050;9.250;2022-10-14T07:22:36;13.90;;;9.13;;
5454;SDS011;2750;49.050;9.250;2022-10-14T07:27:37;10.97;;;8.63;;
5454;SDS011;2750;49.050;9.250;2022-10-14T07:32:39;11.77;;;8.90;;
5454;SDS011;2750;49.050;9.250;2022-10-14T07:37:42;12.40;;;9.00;;
5454;SDS011;2750;49.050;9.250;2022-10-14T07:42:43;10.70;;;8.80;;
5454;SDS011;2750;49.050;9.250;2022-10-14T07:47:46;10.03;;;8.07;;
5454;SDS011;2750;49.050;9.250;2022-10-14T07:52:50;10.80;;;6.93;;
5454;SDS011;2750;49.050;9.250;2022-10-14T07:57:52;12.50;;;7.47;;
5454;SDS011;2750;49.050;9.250;2022-10-14T08:02:53;9.90;;;7.13;;
5454;SDS011;2750;49.050;9.250;2022-10-14T08:07:56;10.90;;;8.00;;
5454;SDS011;2750;49.050;9.250;2022-10-14T08:12:58;8.47;;;7.07;;
5454;SDS011;2750;49.050;9.250;2022-10-14T08:17:59;8.17;;;7.33;;
5454;SDS011;2750;49.050;9.250;2022-10-14T08:23:02;7.67;;;6.90;;
5454;SDS011;2750;49.050;9.250;2022-10-14T08:28:04;7.37;;;6.57;;
5454;SDS011;2750;49.050;9.250;2022-10-14T08:33:05;8.87;;;6.47;;
5454;SDS011;2750;49.050;9.250;2022-10-14T08:38:08;8.07;;;6.40;;
5454;SDS011;2750;49.050;9.250;2022-10-14T08:43:13;6.53;;;5.93;;
5454;SDS011;2750;49.050;9.250;2022-10-14T08:48:23;7.53;;;5.67;;
5454;SDS011;2750;49.050;9.250;2022-10-14T08:53:28;7.73;;;6.20;;
5454;SDS011;2750;49.050;9.250;2022-10-14T08:58:38;8.87;;;6.47;;
5454;SDS011;2750;49.050;9.250;2022-10-14T09:03:42;9.23;;;6.17;;
5454;SDS011;2750;49.050;9.250;2022-10-14T09:08:46;8.77;;;6.00;;
5454;SDS011;2750;49.050;9.250;2022-10-14T09:13:50;8.63;;;6.60;;
5454;SDS011;2750;49.050;9.250;2022-10-14T09:18:58;6.70;;;5.63;;
5454;SDS011;2750;49.050;9.250;2022-10-14T09:24:02;10.33;;;6.60;;
5454;SDS011;2750;49.050;9.250;2022-10-14T09:29:17;8.40;;;6.40;;
5454;SDS011;2750;49.050;9.250;2022-10-14T09:34:24;9.00;;;6.50;;
5454;SDS011;2750;49.050;9.250;2022-10-14T09:39:31;8.07;;;6.67;;
5454;SDS011;2750;49.050;9.250;2022-10-14T09:44:38;10.50;;;6.60;;
5454;SDS011;2750;49.050;9.250;2022-10-14T09:49:40;9.03;;;6.57;;
5454;SDS011;2750;49.050;9.250;2022-10-14T09:54:46;8.80;;;6.43;;
5454;SDS011;2750;49.050;9.250;2022-10-14T09:59:54;7.83;;;6.00;;
5454;SDS011;2750;49.050;9.250;2022-10-14T10:05:04;8.33;;;6.23;;
5454;SDS011;2750;49.050;9.250;2022-10-14T10:10:17;9.53;;;5.93;;
5454;SDS011;2750;49.050;9.250;2022-10-14T10:15:21;6.67;;;5.07;;
5454;SDS011;2750;49.050;9.250;2022-10-14T10:20:24;6.70;;;6.00;;
5454;SDS011;2750;49.050;9.250;2022-10-14T10:25:33;7.37;;;6.33;;
5454;SDS011;2750;49.050;9.250;2022-10-14T10:30:36;9.77;;;5.60;;
5454;SDS011;2750;49.050;9.250;2022-10-14T10:36:01;7.77;;;5.70;;
5454;SDS011;2750;49.050;9.250;2022-10-14T10:41:23;11.70;;;6.43;;
5454;SDS011;2750;49.050;9.250;2022-10-14T10:46:48;6.47;;;5.80;;
5454;SDS011;2750;49.050;9.250;2022-10-14T10:52:02;8.63;;;5.87;;
5454;SDS011;2750;49.050;9.250;2022-10-14T10:57:17;9.77;;;6.50;;
5454;SDS011;2750;49.050;9.250;2022-10-14T11:02:49;6.83;;;5.30;;
5454;SDS011;2750;49.050;9.250;2022-10-14T11:07:56;10.00;;;5.70;;
5454;SDS011;2750;49.050;9.250;2022-10-14T11:13:22;6.77;;;5.60;;
5454;SDS011;2750;49.050;9.250;2022-10-14T11:18:36;7.07;;;5.50;;
5454;SDS011;2750;49.050;9.250;2022-10-14T11:29:13;6.83;;;5.43;;
5454;SDS011;2750;49.050;9.250;2022-10-14T11:39:44;5.70;;;5.20;;
5454;SDS011;2750;49.050;9.250;2022-10-14T11:44:52;7.10;;;5.10;;
5454;SDS011;2750;49.050;9.250;2022-10-14T11:50:11;8.27;;;5.37;;
5454;SDS011;2750;49.050;9.250;2022-10-14T11:55:16;6.63;;;5.87;;
5454;SDS011;2750;49.050;9.250;2022-10-14T12:00:24;6.40;;;5.67;;
5454;SDS011;2750;49.050;9.250;2022-10-14T12:05:48;8.67;;;5.93;;
5454;SDS011;2750;49.050;9.250;2022-10-14T12:10:59;8.07;;;7.17;;
5454;SDS011;2750;49.050;9.250;2022-10-14T12:16:08;7.37;;;6.23;;
5454;SDS011;2750;49.050;9.250;2022-10-14T12:21:14;9.13;;;6.63;;
5454;SDS011;2750;49.050;9.250;2022-10-14T12:26:26;6.70;;;5.63;;
5454;SDS011;2750;49.050;9.250;2022-10-14T12:31:45;7.87;;;6.10;;
5454;SDS011;2750;49.050;9.250;2022-10-14T12:36:50;6.30;;;5.70;;
5454;SDS011;2750;49.050;9.250;2022-10-14T12:41:51;10.93;;;6.47;;
5454;SDS011;2750;49.050;9.250;2022-10-14T12:46:59;7.10;;;6.33;;
5454;SDS011;2750;49.050;9.250;2022-10-14T12:52:03;8.77;;;6.30;;
5454;SDS011;2750;49.050;9.250;2022-10-14T12:57:14;10.77;;;6.00;;
5454;SDS011;2750;49.050;9.250;2022-10-14T13:02:28;9.10;;;5.70;;
5454;SDS011;2750;49.050;9.250;2022-10-14T13:07:38;5.40;;;4.90;;
5454;SDS011;2750;49.050;9.250;2022-10-14T13:12:42;6.67;;;4.83;;
5454;SDS011;2750;49.050;9.250;2022-10-14T13:17:45;7.17;;;5.43;;
5454;SDS011;2750;49.050;9.250;2022-10-14T13:22:47;8.87;;;4.80;;
5454;SDS011;2750;49.050;9.250;2022-10-14T13:28:10;7.27;;;5.40;;
5454;SDS011;2750;49.050;9.250;2022-10-14T13:33:25;6.20;;;4.70;;
5454;SDS011;2750;49.050;9.250;2022-10-14T13:38:34;7.97;;;5.67;;
5454;SDS011;2750;49.050;9.250;2022-10-14T13:43:36;6.73;;;5.40;;
5454;SDS011;2750;49.050;9.250;2022-10-14T13:48:43;6.70;;;5.20;;
5454;SDS011;2750;49.050;9.250;2022-10-14T13:53:50;6.80;;;5.43;;
5454;SDS011;2750;49.050;9.250;2022-10-14T13:58:53;6.30;;;5.60;;
5454;SDS011;2750;49.050;9.250;2022-10-14T14:03:56;6.20;;;5.30;;
5454;SDS011;2750;49.050;9.250;2022-10-14T14:08:59;7.83;;;5.60;;
5454;SDS011;2750;49.050;9.250;2022-10-14T14:14:04;8.83;;;6.03;;
5454;SDS011;2750;49.050;9.250;2022-10-14T14:19:16;6.87;;;6.23;;
5454;SDS011;2750;49.050;9.250;2022-10-14T14:24:21;6.13;;;5.53;;
5454;SDS011;2750;49.050;9.250;2022-10-14T14:29:25;5.40;;;4.90;;
5454;SDS011;2750;49.050;9.250;2022-10-14T14:34:29;4.83;;;3.67;;
5454;SDS011;2750;49.050;9.250;2022-10-14T14:39:30;4.47;;;3.40;;
5454;SDS011;2750;49.050;9.250;2022-10-14T14:44:32;3.57;;;2.73;;
5454;SDS011;2750;49.050;9.250;2022-10-14T14:49:35;3.07;;;2.77;;
5454;SDS011;2750;49.050;9.250;2022-10-14T14:54:42;2.17;;;1.93;;
5454;SDS011;2750;49.050;9.250;2022-10-14T14:59:47;4.80;;;2.27;;
5454;SDS011;2750;49.050;9.250;2022-10-14T15:04:59;2.37;;;1.93;;
5454;SDS011;2750;49.050;9.250;2022-10-14T15:10:03;3.57;;;2.20;;
5454;SDS011;2750;49.050;9.250;2022-10-14T15:15:21;3.17;;;2.00;;
5454;SDS011;2750;49.050;9.250;2022-10-14T15:20:28;3.83;;;1.97;;
5454;SDS011;2750;49.050;9.250;2022-10-14T15:25:31;3.17;;;2.30;;
5454;SDS011;2750;49.050;9.250;2022-10-14T15:30:33;3.70;;;2.70;;
5454;SDS011;2750;49.050;9.250;2022-10-14T15:35:55;3.93;;;2.60;;
5454;SDS011;2750;49.050;9.250;2022-10-14T15:40:58;2.90;;;2.43;;
5454;SDS011;2750;49.050;9.250;2022-10-14T15:46:03;3.97;;;2.57;;
5454;SDS011;2750;49.050;9.250;2022-10-14T15:51:24;2.70;;;2.50;;
5454;SDS011;2750;49.050;9.250;2022-10-14T15:56:29;3.17;;;2.40;;
5454;SDS011;2750;49.050;9.250;2022-10-14T16:01:31;5.40;;;2.60;;
5454;SDS011;2750;49.050;9.250;2022-10-14T16:06:37;2.93;;;2.73;;
5454;SDS011;2750;49.050;9.250;2022-10-14T16:11:39;3.87;;;3.20;;
5454;SDS011;2750;49.050;9.250;2022-10-14T16:16:41;4.60;;;3.57;;
5454;SDS011;2750;49.050;9.250;2022-10-14T16:21:46;3.87;;;2.83;;
5454;SDS011;2750;49.050;9.250;2022-10-14T16:26:49;2.60;;;2.40;;
5454;SDS011;2750;49.050;9.250;2022-10-14T16:31:51;3.10;;;2.80;;
5454;SDS011;2750;49.050;9.250;2022-10-14T16:36:54;3.07;;;2.50;;
5454;SDS011;2750;49.050;9.250;2022-10-14T16:41:56;4.47;;;3.10;;
5454;SDS011;2750;49.050;9.250;2022-10-14T16:46:58;3.47;;;3.10;;
5454;SDS011;2750;49.050;9.250;2022-10-14T16:52:20;4.30;;;3.13;;
5454;SDS011;2750;49.050;9.250;2022-10-14T16:57:21;3.23;;;2.73;;
5454;SDS011;2750;49.050;9.250;2022-10-14T17:02:23;5.30;;;3.17;;
5454;SDS011;2750;49.050;9.250;2022-10-14T17:07:32;5.47;;;2.87;;
5454;SDS011;2750;49.050;9.250;2022-10-14T17:12:33;3.40;;;3.10;;
5454;SDS011;2750;49.050;9.250;2022-10-14T17:17:35;6.93;;;3.13;;
5454;SDS011;2750;49.050;9.250;2022-10-14T17:22:40;2.70;;;2.50;;
5454;SDS011;2750;49.050;9.250;2022-10-14T17:27:41;4.53;;;3.00;;
5454;SDS011;2750;49.050;9.250;2022-10-14T17:32:43;3.33;;;3.10;;
5454;SDS011;2750;49.050;9.250;2022-10-14T17:37:46;4.87;;;3.53;;
5454;SDS011;2750;49.050;9.250;2022-10-14T17:42:48;3.60;;;2.67;;
5454;SDS011;2750;49.050;9.250;2022-10-14T17:47:49;2.73;;;2.40;;
5454;SDS011;2750;49.050;9.250;2022-10-14T17:52:56;3.50;;;2.40;;
5454;SDS011;2750;49.050;9.250;2022-10-14T17:57:58;1.83;;;1.73;;
5454;SDS011;2750;49.050;9.250;2022-10-14T18:03:00;3.37;;;1.90;;
5454;SDS011;2750;49.050;9.250;2022-10-14T18:08:03;2.03;;;1.83;;
5454;SDS011;2750;49.050;9.250;2022-10-14T18:13:05;1.87;;;1.77;;
5454;SDS011;2750;49.050;9.250;2022-10-14T18:18:06;2.80;;;2.10;;
5454;SDS011;2750;49.050;9.250;2022-10-14T18:23:09;2.10;;;1.90;;
5454;SDS011;2750;49.050;9.250;2022-10-14T18:28:11;2.60;;;2.27;;
5454;SDS011;2750;49.050;9.250;2022-10-14T18:33:13;2.70;;;2.17;;
5454;SDS011;2750;49.050;9.250;2022-10-14T18:38:16;3.47;;;2.27;;
5454;SDS011;2750;49.050;9.250;2022-10-14T18:43:17;4.80;;;2.90;;
5454;SDS011;2750;49.050;9.250;2022-10-14T18:48:19;3.10;;;2.07;;
5454;SDS011;2750;49.050;9.250;2022-10-14T18:53:22;3.03;;;1.93;;
5454;SDS011;2750;49.050;9.250;2022-10-14T18:58:24;2.30;;;2.10;;
5454;SDS011;2750;49.050;9.250;2022-10-14T19:03:26;2.83;;;1.80;;
5454;SDS011;2750;49.050;9.250;2022-10-14T19:08:29;2.60;;;2.20;;
5454;SDS011;2750;49.050;9.250;2022-10-14T19:13:31;2.43;;;2.23;;
5454;SDS011;2750;49.050;9.250;2022-10-14T19:18:33;2.77;;;1.77;;
5454;SDS011;2750;49.050;9.250;2022-10-14T19:23:36;3.67;;;3.03;;
5454;SDS011;2750;49.050;9.250;2022-10-14T19:28:38;6.80;;;2.77;;
5454;SDS011;2750;49.050;9.250;2022-10-14T19:33:41;3.57;;;2.37;;
5454;SDS011;2750;49.050;9.250;2022-10-14T19:38:46;2.87;;;2.60;;
5454;SDS011;2750;49.050;9.250;2022-10-14T19:43:51;3.50;;;3.17;;
5454;SDS011;2750;49.050;9.250;2022-10-14T19:48:53;3.90;;;3.60;;
5454;SDS011;2750;49.050;9.250;2022-10-14T19:53:57;6.60;;;3.97;;
5454;SDS011;2750;49.050;9.250;2022-10-14T19:58:59;4.53;;;3.93;;
5454;SDS011;2750;49.050;9.250;2022-10-14T20:04:01;4.60;;;4.20;;
5454;SDS011;2750;49.050;9.250;2022-10-14T20:09:04;6.77;;;4.07;;
5454;SDS011;2750;49.050;9.250;2022-10-14T20:14:07;4.97;;;3.37;;
5454;SDS011;2750;49.050;9.250;2022-10-14T20:19:08;3.50;;;3.20;;
5454;SDS011;2750;49.050;9.250;2022-10-14T20:24:11;5.23;;;3.27;;
5454;SDS011;2750;49.050;9.250;2022-10-14T20:29:13;3.63;;;3.00;;
5454;SDS011;2750;49.050;9.250;2022-10-14T20:34:14;4.57;;;2.30;;
5454;SDS011;2750;49.050;9.250;2022-10-14T20:39:17;2.83;;;2.63;;
5454;SDS011;2750;49.050;9.250;2022-10-14T20:44:19;3.00;;;2.63;;
5454;SDS011;2750;49.050;9.250;2022-10-14T20:49:21;4.80;;;2.80;;
5454;SDS011;2750;49.050;9.250;2022-10-14T20:54:24;2.23;;;2.03;;
5454;SDS011;2750;49.050;9.250;2022-10-14T20:59:26;3.13;;;2.00;;
5454;SDS011;2750;49.050;9.250;2022-10-14T21:04:27;2.50;;;2.30;;
5454;SDS011;2750;49.050;9.250;2022-10-14T21:09:30;3.30;;;2.23;;
5454;SDS011;2750;49.050;9.250;2022-10-14T21:14:32;2.60;;;2.03;;
5454;SDS011;2750;49.050;9.250;2022-10-14T21:19:33;2.30;;;1.83;;
5454;SDS011;2750;49.050;9.250;2022-10-14T21:24:37;2.80;;;2.13;;
5454;SDS011;2750;49.050;9.250;2022-10-14T21:29:40;4.63;;;2.90;;
5454;SDS011;2750;49.050;9.250;2022-10-14T21:34:41;2.30;;;2.10;;
5454;SDS011;2750;49.050;9.250;2022-10-14T21:39:44;2.43;;;2.13;;
5454;SDS011;2750;49.050;9.250;2022-10-14T21:44:46;2.53;;;2.10;;
5454;SDS011;2750;49.050;9.250;2022-10-14T21:49:47;3.03;;;2.50;;
5454;SDS011;2750;49.050;9.250;2022-10-14T21:54:50;5.10;;;2.60;;
5454;SDS011;2750;49.050;9.250;2022-10-14T21:59:52;3.47;;;2.33;;
5454;SDS011;2750;49.050;9.250;2022-10-14T22:04:53;3.07;;;2.53;;
5454;SDS011;2750;49.050;9.250;2022-10-14T22:09:56;3.83;;;3.00;;
5454;SDS011;2750;49.050;9.250;2022-10-14T22:14:58;4.50;;;2.70;;
5454;SDS011;2750;49.050;9.250;2022-10-14T22:19:59;3.93;;;3.20;;
5454;SDS011;2750;49.050;9.250;2022-10-14T22:25:02;3.40;;;2.70;;
5454;SDS011;2750;49.050;9.250;2022-10-14T22:30:05;2.93;;;2.57;;
5454;SDS011;2750;49.050;9.250;2022-10-14T22:35:07;3.23;;;2.70;;
5454;SDS011;2750;49.050;9.250;2022-10-14T22:40:11;3.90;;;3.00;;
5454;SDS011;2750;49.050;9.250;2022-10-14T22:45:13;3.40;;;2.80;;
5454;SDS011;2750;49.050;9.250;2022-10-14T22:50:15;3.43;;;2.70;;
5454;SDS011;2750;49.050;9.250;2022-10-14T22:55:17;3.20;;;2.70;;
5454;SDS011;2750;49.050;9.250;2022-10-14T23:00:19;4.27;;;2.70;;
5454;SDS011;2750;49.050;9.250;2022-10-14T23:05:21;2.30;;;2.10;;
5454;SDS011;2750;49.050;9.250;2022-10-14T23:10:24;2.53;;;2.33;;
5454;SDS011;2750;49.050;9.250;2022-10-14T23:15:25;3.13;;;2.53;;
5454;SDS011;2750;49.050;9.250;2022-10-14T23:20:27;4.43;;;2.90;;
5454;SDS011;2750;49.050;9.250;2022-10-14T23:25:29;2.77;;;2.50;;
5454;SDS011;2750;49.050;9.250;2022-10-14T23:30:31;3.63;;;2.60;;
5454;SDS011;2750;49.050;9.250;2022-10-14T23:35:34;5.13;;;2.60;;
5454;SDS011;2750;49.050;9.250;2022-10-14T23:40:37;4.90;;;2.57;;
5454;SDS011;2750;49.050;9.250;2022-10-14T23:45:38;4.27;;;2.97;;
5454;SDS011;2750;49.050;9.250;2022-10-14T23:50:40;2.87;;;2.47;;
5454;SDS011;2750;49.050;9.250;2022-10-14T23:55:44;2.63;;;2.43;;
